Time;durP1;ratioP1;P1;durP2;ratioP2;P2;SDS_P1;SDS_P2;PMS_P1;PMS_P2;Temp;Humidity;BMP_temperature;BMP_pressure;BME280_temperature;BME280_humidity;BME280_pressure;Samples;Min_cycle;Max_cycle;Signal;HPM_P1;HPM_P2
2023/09/04 00:02:11;;;;;;;12.20;7.57;;;;;;;14.68;100.00;102717.91;5060927;28;20037;-94
2023/09/04 00:04:37;;;;;;;10.57;9.43;;;;;;;14.62;100.00;102728.97;5026945;28;20112;-95
2023/09/04 00:07:02;;;;;;;14.80;11.05;;;;;;;14.64;100.00;102720.81;5053907;28;20036;-95
2023/09/04 00:09:29;;;;;;;13.93;10.98;;;;;;;14.62;100.00;102726.28;5023803;28;20403;-95
2023/09/04 00:11:56;;;;;;;20.45;12.65;;;;;;;14.64;100.00;102729.75;5014427;28;20025;-94
2023/09/04 00:14:21;;;;;;;12.95;10.80;;;;;;;14.60;100.00;102727.28;5043966;28;20060;-96
2023/09/04 00:16:47;;;;;;;14.30;11.50;;;;;;;14.66;100.00;102724.28;5026797;28;20072;-95
2023/09/04 00:19:17;;;;;;;15.95;12.05;;;;;;;14.68;100.00;102727.78;5027929;28;20092;-94
2023/09/04 00:21:42;;;;;;;18.52;12.43;;;;;;;14.58;100.00;102723.81;5028166;28;20041;-96
2023/09/04 00:24:09;;;;;;;11.13;8.73;;;;;;;14.50;100.00;102726.88;5016218;28;20026;-90
2023/09/04 00:26:35;;;;;;;6.30;5.60;;;;;;;14.39;100.00;102727.38;5030520;28;20045;-90
2023/09/04 00:29:04;;;;;;;7.60;6.82;;;;;;;14.33;100.00;102727.69;5021035;28;20105;-90
2023/09/04 00:31:30;;;;;;;11.00;8.43;;;;;;;14.24;100.00;102725.44;5027276;28;20041;-88
2023/09/04 00:33:56;;;;;;;16.83;9.43;;;;;;;14.20;100.00;102730.09;5045101;28;21420;-88
2023/09/04 00:36:22;;;;;;;14.65;9.93;;;;;;;14.22;100.00;102727.34;5056215;28;20041;-94
2023/09/04 00:38:48;;;;;;;17.05;12.98;;;;;;;14.27;100.00;102721.75;5044696;28;20458;-94
2023/09/04 00:41:15;;;;;;;21.75;13.98;;;;;;;14.29;100.00;102720.72;5027999;28;20037;-94
2023/09/04 00:43:41;;;;;;;19.90;12.77;;;;;;;14.31;100.00;102721.53;5044536;28;20036;-93
2023/09/04 00:46:07;;;;;;;20.88;12.10;;;;;;;14.22;100.00;102727.34;5033278;28;20042;-93
2023/09/04 00:48:33;;;;;;;12.02;10.15;;;;;;;14.11;100.00;102719.81;5025505;28;20040;-93
2023/09/04 00:51:00;;;;;;;13.93;12.13;;;;;;;14.17;100.00;102715.97;5026679;28;20033;-94
2023/09/04 00:53:27;;;;;;;15.75;12.20;;;;;;;14.14;100.00;102714.28;5026060;28;20090;-93
2023/09/04 00:55:52;;;;;;;15.27;11.88;;;;;;;14.07;100.00;102712.00;5026391;28;20033;-91
2023/09/04 00:58:19;;;;;;;17.30;10.77;;;;;;;14.04;100.00;102709.44;5052234;28;20018;-94
2023/09/04 01:00:46;;;;;;;15.90;11.00;;;;;;;13.98;100.00;102710.59;5012507;28;20060;-92
2023/09/04 01:03:12;;;;;;;17.42;13.23;;;;;;;14.07;100.00;102709.31;5026196;28;20048;-94
2023/09/04 01:05:41;;;;;;;17.85;13.70;;;;;;;14.10;100.00;102707.31;5010625;28;20046;-90
2023/09/04 01:08:08;;;;;;;19.63;12.60;;;;;;;14.04;100.00;102709.44;5010798;28;20037;-93
2023/09/04 01:11:03;;;;;;;18.02;13.32;;;;;;;14.00;100.00;102697.97;5009005;28;20042;-91
2023/09/04 01:13:56;;;;;;;22.92;13.55;;;;;;;14.07;100.00;102702.13;5009546;28;20049;-93
2023/09/04 01:16:24;;;;;;;16.65;12.60;;;;;;;13.99;100.00;102707.84;5021731;28;20121;-93
2023/09/04 01:18:53;;;;;;;22.95;13.00;;;;;;;13.92;100.00;102717.13;5008702;28;20042;-92
2023/09/04 01:21:19;;;;;;;22.58;13.07;;;;;;;13.90;100.00;102704.72;5057928;28;20100;-94
2023/09/04 01:23:44;;;;;;;15.25;12.30;;;;;;;13.91;100.00;102711.84;5035149;28;20022;-91
2023/09/04 01:26:13;;;;;;;18.83;14.52;;;;;;;13.94;100.00;102709.88;5044041;28;20022;-94
2023/09/04 01:29:09;;;;;;;22.05;13.15;;;;;;;13.88;100.00;102706.63;5010680;28;20046;-93
2023/09/04 01:31:54;;;;;;;18.60;14.30;;;;;;;13.84;100.00;102713.94;5037828;28;20075;-90
2023/09/04 01:34:32;;;;;;;20.45;14.07;;;;;;;13.86;100.00;102711.22;5051448;28;20025;-90
2023/09/04 01:37:00;;;;;;;19.67;14.52;;;;;;;13.79;100.00;102705.25;5050702;28;20038;-93
2023/09/04 01:39:27;;;;;;;16.35;12.85;;;;;;;13.82;100.00;102718.50;5032299;28;20033;-93
2023/09/04 01:41:53;;;;;;;17.80;12.32;;;;;;;13.82;100.00;102718.50;5048343;28;20033;-91
2023/09/04 01:44:19;;;;;;;17.98;13.55;;;;;;;13.79;100.00;102718.66;5029656;28;20093;-94
2023/09/04 01:46:45;;;;;;;16.20;12.68;;;;;;;13.80;100.00;102723.06;5027288;28;20042;-94
2023/09/04 01:49:11;;;;;;;22.00;13.88;;;;;;;13.77;100.00;102717.88;5023479;28;20037;-91
2023/09/04 01:51:39;;;;;;;18.77;13.52;;;;;;;13.82;100.00;102720.31;5065458;28;20053;-94
2023/09/04 01:54:05;;;;;;;18.90;13.93;;;;;;;13.84;100.00;102715.75;5032842;28;20029;-94
2023/09/04 01:56:31;;;;;;;18.80;14.95;;;;;;;13.78;100.00;102713.38;5061067;28;20124;-93
2023/09/04 01:58:57;;;;;;;20.13;14.65;;;;;;;13.73;100.00;102710.91;5048479;28;20045;-94
2023/09/04 02:01:26;;;;;;;21.95;14.05;;;;;;;13.67;100.00;102713.88;5037869;28;20474;-92
2023/09/04 02:03:56;;;;;;;19.98;14.80;;;;;;;13.66;100.00;102725.53;5044101;28;20033;-92
2023/09/04 02:06:30;;;;;;;20.10;14.68;;;;;;;13.67;100.00;102713.88;5032896;28;20030;-91
2023/09/04 02:08:57;;;;;;;21.50;15.40;;;;;;;13.67;100.00;102714.75;5030780;28;20049;-93
2023/09/04 02:11:24;;;;;;;20.25;15.57;;;;;;;13.61;100.00;102714.16;5031537;28;20022;-93
2023/09/04 02:13:52;;;;;;;24.92;16.20;;;;;;;13.70;100.00;102711.94;5031347;28;20018;-92
2023/09/04 02:16:18;;;;;;;22.10;15.43;;;;;;;13.69;100.00;102712.84;5048564;28;20100;-94
2023/09/04 02:18:43;;;;;;;27.73;17.23;;;;;;;13.69;100.00;102703.94;5041465;28;20044;-94
2023/09/04 02:21:09;;;;;;;22.48;16.50;;;;;;;13.66;100.00;102707.63;5050469;28;20044;-92
2023/09/04 02:23:36;;;;;;;19.27;14.50;;;;;;;13.59;100.00;102708.84;5045749;28;20034;-93
2023/09/04 02:26:02;;;;;;;23.67;15.90;;;;;;;13.63;100.00;102706.91;5013202;28;20064;-92
2023/09/04 02:28:30;;;;;;;24.35;15.55;;;;;;;13.66;100.00;102704.97;5013325;28;20034;-92
2023/09/04 02:30:56;;;;;;;25.08;17.25;;;;;;;13.62;100.00;102710.53;5033639;28;20041;-92
2023/09/04 02:33:22;;;;;;;23.08;15.55;;;;;;;13.62;100.00;102711.41;5050408;28;20095;-93
2023/09/04 02:35:49;;;;;;;24.42;16.90;;;;;;;13.63;100.00;102710.44;5050879;28;20037;-93
2023/09/04 02:38:15;;;;;;;22.45;16.13;;;;;;;13.63;100.00;102707.78;5015680;28;20090;-91
2023/09/04 02:40:40;;;;;;;25.73;16.65;;;;;;;13.58;100.00;102700.88;5030851;28;20065;-93
2023/09/04 02:43:06;;;;;;;22.65;16.83;;;;;;;13.54;100.00;102705.50;5026771;28;20459;-92
2023/09/04 02:45:33;;;;;;;19.80;15.15;;;;;;;13.53;100.00;102698.41;5052825;28;20442;-93
2023/09/04 02:47:58;;;;;;;25.30;18.17;;;;;;;13.54;100.00;102705.50;5070310;28;20102;-92
2023/09/04 02:50:24;;;;;;;23.77;16.23;;;;;;;13.52;100.00;102699.38;5053442;28;20532;-92
2023/09/04 02:52:50;;;;;;;26.58;18.50;;;;;;;13.52;100.00;102702.03;5035145;28;20061;-93
2023/09/04 02:55:15;;;;;;;26.65;16.70;;;;;;;13.50;100.00;102697.69;5030708;28;20513;-90
2023/09/04 02:57:41;;;;;;;20.05;16.60;;;;;;;13.47;100.00;102691.53;5050631;28;20132;-93
2023/09/04 03:00:07;;;;;;;21.48;16.45;;;;;;;13.47;100.00;102693.34;5054085;28;20065;-93
2023/09/04 03:02:34;;;;;;;22.35;15.63;;;;;;;13.41;100.00;102690.94;5036383;28;20057;-93
2023/09/04 03:05:00;;;;;;;23.80;16.52;;;;;;;13.40;100.00;102686.50;5053030;28;20033;-94
2023/09/04 03:07:27;;;;;;;20.63;15.55;;;;;;;13.39;100.00;102674.91;5051918;28;20052;-93
2023/09/04 03:09:55;;;;;;;22.92;17.13;;;;;;;13.25;100.00;102674.66;5052248;28;20759;-93
2023/09/04 03:12:32;;;;;;;21.15;16.55;;;;;;;13.34;100.00;102673.38;5047165;28;20033;-94
2023/09/04 03:15:04;;;;;;;21.42;15.32;;;;;;;13.38;100.00;102669.63;5050040;28;20038;-93
2023/09/04 03:17:30;;;;;;;;;;;;;;;13.32;100.00;102669.94;5035885;28;20042;-89
2023/09/04 03:19:58;;;;;;;29.40;16.58;;;;;;;13.24;100.00;102672.06;5033015;28;19928;-91
2023/09/04 03:22:27;;;;;;;23.75;17.73;;;;;;;13.21;100.00;102673.06;5036280;28;20025;-92
2023/09/04 03:24:54;;;;;;;22.77;16.58;;;;;;;13.23;100.00;102673.00;5045521;28;20041;-91
2023/09/04 03:27:25;;;;;;;29.05;20.63;;;;;;;13.19;100.00;102678.47;5051627;28;20030;-92
2023/09/04 03:29:52;;;;;;;25.95;17.98;;;;;;;13.19;100.00;102674.91;5050850;28;20041;-92
2023/09/04 03:32:25;;;;;;;31.55;19.70;;;;;;;13.18;100.00;102674.06;5047550;28;20030;-92
2023/09/04 03:34:51;;;;;;;31.95;20.55;;;;;;;13.16;100.00;102678.63;5015433;28;20038;-91
2023/09/04 03:37:17;;;;;;;25.48;19.05;;;;;;;13.12;100.00;102678.81;5032084;28;20034;-91
2023/09/04 03:39:44;;;;;;;26.55;19.40;;;;;;;13.15;100.00;102682.25;5043118;28;20122;-92
2023/09/04 03:42:10;;;;;;;23.02;16.23;;;;;;;13.09;100.00;102678.94;5033228;28;20158;-92
2023/09/04 03:44:38;;;;;;;25.15;16.27;;;;;;;13.09;100.00;102685.19;5032787;28;20034;-92
2023/09/04 03:47:05;;;;;;;23.83;16.42;;;;;;;13.11;100.00;102677.97;5033507;28;20107;-92
2023/09/04 03:49:30;;;;;;;22.50;17.50;;;;;;;13.07;100.00;102675.47;5034982;28;20049;-90
2023/09/04 03:51:56;;;;;;;23.50;18.15;;;;;;;13.04;100.00;102678.28;5033484;28;20033;-91
2023/09/04 03:54:22;;;;;;;23.33;15.85;;;;;;;13.00;100.00;102682.03;5031909;28;20101;-92
2023/09/04 03:56:50;;;;;;;23.10;16.85;;;;;;;12.99;100.00;102674.94;5031470;28;20041;-91
2023/09/04 03:59:15;;;;;;;29.58;18.85;;;;;;;12.96;100.00;102668.78;5029450;28;20044;-92
2023/09/04 04:01:43;;;;;;;25.63;17.05;;;;;;;12.99;100.00;102672.25;5032586;28;20033;-90
2023/09/04 04:04:11;;;;;;;23.25;16.90;;;;;;;12.91;100.00;102670.81;5047959;28;20055;-90
2023/09/04 04:06:37;;;;;;;25.40;17.83;;;;;;;12.94;100.00;102673.31;5047333;28;20030;-90
2023/09/04 04:09:03;;;;;;;22.95;17.27;;;;;;;12.91;100.00;102667.25;5047176;28;20105;-90
2023/09/04 04:11:30;;;;;;;24.08;18.40;;;;;;;12.90;100.00;102669.06;5029944;28;20029;-91
2023/09/04 04:13:56;;;;;;;30.23;20.33;;;;;;;12.88;100.00;102668.25;5010060;28;20081;-91
2023/09/04 04:16:22;;;;;;;27.02;18.95;;;;;;;12.82;100.00;102670.34;5041976;28;20181;-90
2023/09/04 04:18:48;;;;;;;31.50;21.25;;;;;;;12.78;100.00;102668.72;5024524;28;20571;-91
2023/09/04 04:21:16;;;;;;;35.08;22.58;;;;;;;12.73;100.00;102670.72;5025062;28;20069;-91
2023/09/04 04:23:42;;;;;;;39.53;23.25;;;;;;;12.63;100.00;102665.75;5010160;28;20041;-90
2023/09/04 04:26:08;;;;;;;33.70;21.92;;;;;;;12.62;100.00;102663.16;5010268;28;20486;-89
2023/09/04 04:28:34;;;;;;;29.15;20.95;;;;;;;12.62;100.00;102669.38;5027373;28;20042;-90
2023/09/04 04:31:01;;;;;;;32.90;22.77;;;;;;;12.57;100.00;102666.03;5012866;28;20096;-90
2023/09/04 04:33:28;;;;;;;32.67;22.75;;;;;;;12.53;100.00;102666.22;5029991;28;20037;-90
2023/09/04 04:35:54;;;;;;;37.78;23.75;;;;;;;12.59;100.00;102663.28;5012308;28;20033;-89
2023/09/04 04:38:20;;;;;;;33.42;21.52;;;;;;;12.63;100.00;102665.75;5026298;28;20751;-89
2023/09/04 04:40:46;;;;;;;33.50;22.45;;;;;;;12.70;100.00;102664.59;5009373;28;20038;-90
2023/09/04 04:43:14;;;;;;;29.23;19.70;;;;;;;12.69;100.00;102657.47;5007972;28;20172;-89
2023/09/04 04:45:43;;;;;;;34.38;22.58;;;;;;;12.70;100.00;102656.56;5024893;28;20042;-90
2023/09/04 04:48:09;;;;;;;27.42;20.83;;;;;;;12.75;100.00;102659.03;5007193;28;20022;-89
2023/09/04 04:50:35;;;;;;;31.25;22.42;;;;;;;12.69;100.00;102656.59;5022802;28;20376;-90
2023/09/04 04:53:01;;;;;;;29.63;20.60;;;;;;;12.69;100.00;102659.28;5006682;28;20034;-90
2023/09/04 04:55:27;;;;;;;29.92;21.38;;;;;;;12.78;100.00;102658.88;5006191;28;20026;-90
2023/09/04 04:57:56;;;;;;;39.95;21.27;;;;;;;12.80;100.00;102656.13;5021553;28;20038;-89
2023/09/04 05:00:24;;;;;;;29.38;21.48;;;;;;;12.86;100.00;102653.22;5021771;28;20080;-90
2023/09/04 05:02:49;;;;;;;29.95;21.17;;;;;;;12.94;100.00;102662.63;5021885;28;20775;-90
2023/09/04 05:05:16;;;;;;;28.63;19.67;;;;;;;12.99;100.00;102662.41;5021412;28;20037;-90
2023/09/04 05:07:42;;;;;;;28.73;20.38;;;;;;;12.99;100.00;102651.72;5004572;28;20032;-90
2023/09/04 05:10:12;;;;;;;24.10;18.77;;;;;;;13.06;100.00;102646.97;5005627;28;20054;-91
2023/09/04 05:12:37;;;;;;;29.25;20.63;;;;;;;13.09;100.00;102644.13;5004949;28;20446;-90
2023/09/04 05:15:07;;;;;;;29.00;21.10;;;;;;;13.08;100.00;102651.28;5005012;28;20088;-90
2023/09/04 05:17:32;;;;;;;28.80;20.20;;;;;;;13.11;100.00;102651.16;5003967;28;20634;-90
2023/09/04 05:19:58;;;;;;;24.85;19.73;;;;;;;13.20;100.00;102647.19;5021632;28;20104;-89
2023/09/04 05:22:24;;;;;;;28.88;21.75;;;;;;;13.23;100.00;102651.59;5004326;28;20048;-90
2023/09/04 05:24:49;;;;;;;32.13;21.58;;;;;;;13.19;100.00;102643.63;5020759;28;20066;-90
2023/09/04 05:27:15;;;;;;;31.55;22.30;;;;;;;13.10;100.00;102645.88;5021699;28;20069;-90
2023/09/04 05:29:41;;;;;;;45.20;26.27;;;;;;;13.02;100.00;102645.34;5004335;28;20055;-90
2023/09/04 05:32:06;;;;;;;34.30;23.15;;;;;;;13.02;100.00;102646.22;5021717;28;20040;-89
2023/09/04 05:34:32;;;;;;;32.22;23.40;;;;;;;13.10;100.00;102640.50;5004676;28;20109;-91
2023/09/04 05:36:57;;;;;;;29.45;21.67;;;;;;;13.17;100.00;102645.53;5020971;28;20085;-89
2023/09/04 05:39:26;;;;;;;30.05;21.85;;;;;;;13.24;100.00;102640.78;5003868;28;20480;-90
2023/09/04 05:41:52;;;;;;;34.83;22.98;;;;;;;13.30;100.00;102645.00;5003071;28;20539;-89
2023/09/04 05:44:18;;;;;;;26.90;19.80;;;;;;;13.42;100.00;102648.00;5020363;28;20034;-90
2023/09/04 05:46:46;;;;;;;26.42;20.02;;;;;;;13.51;100.00;102646.69;5021132;28;20045;-91
2023/09/04 05:49:12;;;;;;;31.48;21.58;;;;;;;13.57;100.00;102641.03;5020839;28;20034;-91
2023/09/04 05:51:37;;;;;;;34.25;20.48;;;;;;;13.61;100.00;102641.78;5004998;28;20033;-90
2023/09/04 05:54:03;;;;;;;29.08;21.40;;;;;;;13.70;100.00;102639.53;5020839;28;20034;-90
2023/09/04 05:56:32;;;;;;;25.98;18.00;;;;;;;13.82;100.00;102643.44;5021163;28;20558;-90
2023/09/04 05:58:57;;;;;;;26.08;20.42;;;;;;;13.88;100.00;102640.44;5005570;28;20026;-90
2023/09/04 06:01:24;;;;;;;32.92;21.55;;;;;;;13.90;100.00;102640.34;5022211;28;20089;-90
2023/09/04 06:03:50;;;;;;;33.67;20.25;;;;;;;13.89;100.00;102654.72;5039764;28;20109;-90
2023/09/04 06:06:16;;;;;;;26.30;20.08;;;;;;;13.97;100.00;102650.72;5022073;28;20032;-90
2023/09/04 06:08:42;;;;;;;24.13;17.85;;;;;;;14.11;100.00;102641.16;5040862;28;20040;-89
2023/09/04 06:11:07;;;;;;;28.42;20.15;;;;;;;14.22;100.00;102639.66;5006255;28;20042;-90
2023/09/04 06:13:33;;;;;;;27.40;21.38;;;;;;;14.32;100.00;102637.38;5022827;28;20038;-90
2023/09/04 06:16:00;;;;;;;27.40;21.08;;;;;;;14.40;100.00;102636.97;5041198;28;20034;-90
2023/09/04 06:18:29;;;;;;;29.92;20.38;;;;;;;14.48;100.00;102638.38;5007424;28;20026;-91
2023/09/04 06:20:58;;;;;;;26.25;20.80;;;;;;;14.52;100.00;102635.53;5024640;28;20073;-89
2023/09/04 06:23:26;;;;;;;24.45;18.80;;;;;;;14.53;100.00;102638.16;5025308;28;20069;-90
2023/09/04 06:25:52;;;;;;;25.83;20.23;;;;;;;14.66;100.00;102639.25;5024924;28;20038;-91
2023/09/04 06:28:21;;;;;;;24.88;19.85;;;;;;;14.71;100.00;102639.88;5027653;28;20065;-91
2023/09/04 06:30:49;;;;;;;24.55;19.85;;;;;;;14.83;100.00;102649.13;5013045;28;20034;-92
2023/09/04 06:33:15;;;;;;;26.77;21.02;;;;;;;15.03;100.00;102650.75;5029721;28;20034;-90
2023/09/04 06:35:40;;;;;;;27.20;20.52;;;;;;;15.23;100.00;102649.69;5028792;28;20117;-90
2023/09/04 06:38:06;;;;;;;23.92;18.85;;;;;;;15.46;100.00;102660.06;5027777;28;20034;-91
2023/09/04 06:40:32;;;;;;;27.23;19.67;;;;;;;15.70;100.00;102648.91;5028650;28;20041;-91
2023/09/04 06:42:57;;;;;;;23.10;18.88;;;;;;;15.83;100.00;102638.34;5045082;28;20065;-91
2023/09/04 06:45:24;;;;;;;24.80;19.25;;;;;;;16.11;100.00;102635.78;5008557;28;20042;-91
2023/09/04 06:47:50;;;;;;;21.73;19.38;;;;;;;16.38;100.00;102637.84;5022370;28;20077;-92
2023/09/04 06:50:16;;;;;;;23.30;18.45;;;;;;;16.44;100.00;102642.84;5022749;28;20042;-91
2023/09/04 06:52:41;;;;;;;24.08;19.48;;;;;;;16.63;100.00;102632.72;5004623;28;20038;-93
2023/09/04 06:55:07;;;;;;;27.00;20.00;;;;;;;16.94;100.00;102623.66;5008644;28;20109;-92
2023/09/04 06:57:33;;;;;;;26.95;19.20;;;;;;;16.90;100.00;102627.50;5008031;28;20052;-93
2023/09/04 07:00:06;;;;;;;27.23;19.05;;;;;;;16.97;100.00;102628.00;5043210;28;20040;-94
2023/09/04 07:02:32;;;;;;;23.52;18.88;;;;;;;17.24;100.00;102634.34;5008334;28;20026;-92
2023/09/04 07:04:58;;;;;;;22.40;19.00;;;;;;;17.34;100.00;102629.25;5024348;28;20049;-94
2023/09/04 07:07:26;;;;;;;22.92;19.48;;;;;;;17.70;100.00;102631.41;5042480;28;20049;-92
2023/09/04 07:09:52;;;;;;;24.75;19.92;;;;;;;17.80;100.00;102626.31;5024749;28;20132;-94
2023/09/04 07:12:17;;;;;;;21.60;18.10;;;;;;;17.97;100.00;102620.69;5024323;28;20563;-95
2023/09/04 07:14:45;;;;;;;27.35;20.52;;;;;;;18.01;100.00;102618.63;5024668;28;20092;-94
2023/09/04 07:17:10;;;;;;;26.55;20.83;;;;;;;18.10;100.00;102618.03;5024578;28;20053;-94
2023/09/04 07:19:37;;;;;;;24.70;18.08;;;;;;;18.33;100.00;102620.06;5025238;28;20541;-95
2023/09/04 07:22:03;;;;;;;23.88;19.52;;;;;;;18.57;100.00;102616.63;5010668;28;20063;-94
2023/09/04 07:24:30;;;;;;;23.73;18.10;;;;;;;18.61;100.00;102619.03;5011439;28;20475;-94
2023/09/04 07:26:56;;;;;;;23.55;16.90;;;;;;;18.77;100.00;102613.44;5013214;28;20033;-94
2023/09/04 07:29:21;;;;;;;19.13;16.35;;;;;;;18.95;100.00;102610.44;5012476;28;20046;-94
2023/09/04 07:31:47;;;;;;;22.27;16.98;;;;;;;19.07;100.00;102607.72;5028422;28;20049;-95
2023/09/04 07:34:14;;;;;;;21.02;16.85;;;;;;;18.95;100.00;102613.13;5048728;28;20014;-95
2023/09/04 07:36:40;;;;;;;19.25;15.52;;;;;;;19.10;100.00;102620.16;5046808;28;20034;-95
2023/09/04 07:39:07;;;;;;;20.52;16.83;;;;;;;19.52;100.00;102607.22;5030796;28;20025;-95
2023/09/04 07:41:33;;;;;;;19.08;16.38;;;;;;;19.46;100.00;102621.19;5030206;28;20094;-95
2023/09/04 07:43:59;;;;;;;22.02;16.45;;;;;;;19.71;100.00;102618.47;5029717;28;20487;-95
2023/09/04 07:46:24;;;;;;;21.92;16.00;;;;;;;19.82;100.00;102618.53;5029634;28;20033;-95
2023/09/04 07:48:50;;;;;;;22.85;17.40;;;;;;;20.19;100.00;102613.06;5028766;28;20041;-94
2023/09/04 07:51:17;;;;;;;18.45;16.30;;;;;;;20.30;100.00;102606.84;5046049;28;20032;-94
2023/09/04 07:53:46;;;;;;;24.83;17.25;;;;;;;20.50;100.00;102617.03;5046140;28;20026;-94
2023/09/04 07:56:11;;;;;;;19.95;16.45;;;;;;;20.72;100.00;102621.63;5045874;28;20105;-95
2023/09/04 07:58:39;;;;;;;22.05;17.40;;;;;;;20.70;100.00;102618.19;5046029;28;20033;-94
2023/09/04 08:01:09;;;;;;;20.08;15.48;;;;;;;20.51;100.00;102613.34;5028750;28;20030;-95
2023/09/04 08:03:35;;;;;;;20.17;16.33;;;;;;;20.68;100.00;102614.72;5046075;28;20037;-95
2023/09/04 08:06:01;;;;;;;18.27;16.30;;;;;;;20.84;100.00;102617.97;5046321;28;20029;-95
2023/09/04 08:08:27;;;;;;;21.45;17.42;;;;;;;20.80;100.00;102615.63;5030000;28;20060;-95
2023/09/04 08:10:56;;;;;;;22.95;17.08;;;;;;;20.61;100.00;102613.50;5045785;28;20029;-95
2023/09/04 08:13:22;;;;;;;19.55;16.83;;;;;;;20.75;100.00;102615.13;5030527;28;20037;-94
2023/09/04 08:15:49;;;;;;;20.70;17.02;;;;;;;20.99;100.00;102615.06;5046793;28;20494;-96
2023/09/04 08:18:15;;;;;;;17.95;15.85;;;;;;;21.08;100.00;102611.59;5029704;28;20038;-96
2023/09/04 08:20:42;;;;;;;27.08;17.15;;;;;;;20.85;100.00;102614.28;5045030;28;20073;-96
2023/09/04 08:23:09;;;;;;;18.25;15.70;;;;;;;20.98;100.00;102605.16;5028917;28;20093;-96
2023/09/04 08:25:36;;;;;;;19.42;14.82;;;;;;;21.01;100.00;102602.22;5030576;28;20126;-94
2023/09/04 08:28:03;;;;;;;16.15;14.10;;;;;;;21.09;100.00;102600.63;5030224;28;20033;-95
2023/09/04 08:30:32;;;;;;;19.15;14.38;;;;;;;21.00;100.00;102595.94;5030063;28;20948;-96
2023/09/04 08:32:58;;;;;;;21.70;15.13;;;;;;;21.04;100.00;102588.41;5035755;28;20037;-95
2023/09/04 08:35:29;;;;;;;17.33;14.15;;;;;;;21.05;100.00;102591.00;5030501;28;20033;-96
2023/09/04 08:37:57;;;;;;;19.60;14.35;;;;;;;21.23;100.00;102590.50;5046591;28;20522;-96
2023/09/04 08:40:26;;;;;;;16.27;13.75;;;;;;;21.05;100.00;102591.00;5045465;28;20585;-95
2023/09/04 08:42:55;;;;;;;17.48;13.52;;;;;;;21.16;100.00;102584.72;5028881;28;20021;-95
2023/09/04 08:45:26;;;;;;;18.92;13.57;;;;;;;21.11;100.00;102582.38;5028673;28;20072;-96
2023/09/04 08:47:54;;;;;;;15.02;11.85;;;;;;;21.27;99.38;102587.41;5029123;28;20034;-96
2023/09/04 08:50:24;;;;;;;13.93;11.65;;;;;;;21.38;98.88;102587.44;5062435;28;20029;-96
2023/09/04 08:52:50;;;;;;;14.32;10.82;;;;;;;21.36;95.44;102581.28;5035570;28;20018;-94
2023/09/04 08:55:19;;;;;;;15.10;11.02;;;;;;;21.47;100.00;102583.09;5037285;28;20482;-94
2023/09/04 08:57:45;;;;;;;12.40;10.50;;;;;;;21.42;96.92;102574.47;5029919;28;20025;-94
2023/09/04 09:00:11;;;;;;;14.48;11.05;;;;;;;21.63;97.56;102582.69;5037580;28;20029;-95
2023/09/04 09:02:38;;;;;;;14.75;10.40;;;;;;;21.76;100.00;102583.44;5058633;28;20045;-94
2023/09/04 09:05:04;;;;;;;11.93;9.35;;;;;;;21.66;92.33;102583.31;5054288;28;20038;-95
2023/09/04 09:07:30;;;;;;;12.25;8.43;;;;;;;21.60;91.88;102578.41;5009971;28;20134;-95
2023/09/04 09:10:03;;;;;;;14.63;9.57;;;;;;;21.85;93.50;102582.66;5044956;28;20045;-95
2023/09/04 09:12:32;;;;;;;15.98;11.05;;;;;;;21.89;95.13;102577.84;5028991;28;20034;-93
2023/09/04 09:14:59;;;;;;;14.50;10.23;;;;;;;21.88;94.83;102576.09;5044199;28;20040;-94
2023/09/04 09:17:26;;;;;;;13.50;9.77;;;;;;;21.97;92.18;102568.03;5026271;28;20109;-95
2023/09/04 09:19:51;;;;;;;12.10;10.82;;;;;;;21.84;93.95;102572.78;5013971;28;20033;-92
2023/09/04 09:22:21;;;;;;;14.70;11.10;;;;;;;21.80;97.47;102574.03;5033214;28;20029;-95
2023/09/04 09:24:55;;;;;;;13.13;10.95;;;;;;;22.05;97.04;102575.56;5026383;28;20037;-95
2023/09/04 09:27:29;;;;;;;17.13;11.38;;;;;;;21.93;98.77;102568.41;5037412;28;20038;-94
2023/09/04 09:29:59;;;;;;;13.73;10.70;;;;;;;21.97;93.58;102575.31;5047373;28;20052;-95
2023/09/04 09:32:31;;;;;;;11.10;9.73;;;;;;;21.84;91.56;102571.91;5015067;28;20061;-91
2023/09/04 09:34:58;;;;;;;13.75;10.55;;;;;;;21.98;91.42;102564.31;5036759;28;20029;-90
2023/09/04 09:37:31;;;;;;;14.95;9.57;;;;;;;21.80;87.38;102556.88;5035701;28;20037;-92
2023/09/04 09:39:57;;;;;;;12.25;9.10;;;;;;;22.08;88.64;102563.53;5036386;28;20029;-92
2023/09/04 09:42:25;;;;;;;9.45;8.38;;;;;;;22.19;91.28;102563.56;5057625;28;20021;-91
2023/09/04 09:44:53;;;;;;;12.27;8.40;;;;;;;22.12;88.82;102556.91;5019456;28;20898;-94
2023/09/04 09:47:18;;;;;;;9.20;7.28;;;;;;;22.16;85.69;102553.78;5031476;28;20151;-95
2023/09/04 09:49:45;;;;;;;12.52;9.35;;;;;;;22.00;84.72;102550.63;5055674;28;20033;-94
2023/09/04 09:52:13;;;;;;;10.52;8.65;;;;;;;22.35;88.12;102549.50;5037611;28;20025;-92
2023/09/04 09:54:43;;;;;;;12.25;8.13;;;;;;;22.64;87.82;102555.09;5040921;28;20033;-91
2023/09/04 09:57:17;;;;;;;13.95;7.82;;;;;;;22.55;86.42;102547.78;5038284;28;20034;-93
2023/09/04 09:59:50;;;;;;;10.50;7.50;;;;;;;22.49;84.37;102541.88;5041551;28;20141;-93
2023/09/04 10:02:22;;;;;;;12.02;8.55;;;;;;;22.75;86.73;102544.16;5041583;28;20034;-91
2023/09/04 10:04:49;;;;;;;17.55;11.48;;;;;;;22.59;90.65;102546.47;5058081;28;20507;-94
2023/09/04 10:07:18;;;;;;;13.38;11.10;;;;;;;22.90;89.67;102550.16;5025825;28;20038;-92
2023/09/04 10:09:45;;;;;;;14.80;11.18;;;;;;;23.01;90.42;102555.50;5027333;28;20140;-93
2023/09/04 10:12:13;;;;;;;11.80;9.05;;;;;;;22.84;86.85;102548.81;5040547;28;20124;-92
2023/09/04 10:14:41;;;;;;;10.93;8.85;;;;;;;22.87;89.84;102555.81;5016627;28;20042;-92
2023/09/04 10:17:18;;;;;;;13.80;9.27;;;;;;;23.03;85.87;102553.47;5025938;28;20153;-91
2023/09/04 10:19:46;;;;;;;12.23;9.30;;;;;;;23.21;85.86;102542.81;5041797;28;20037;-89
2023/09/04 10:22:25;;;;;;;10.68;9.25;;;;;;;23.11;81.88;102540.06;5027204;28;20068;-95
2023/09/04 10:24:57;;;;;;;13.77;8.00;;;;;;;23.18;83.50;102541.22;5016302;28;20121;-92
2023/09/04 10:27:27;;;;;;;10.77;7.47;;;;;;;23.25;82.11;102536.09;5033061;28;21359;-93
2023/09/04 10:30:01;;;;;;;11.02;7.35;;;;;;;23.32;80.66;102528.22;5035296;28;20046;-94
2023/09/04 10:32:28;;;;;;;11.40;7.88;;;;;;;23.29;82.82;102528.50;5025575;28;20018;-95
2023/09/04 10:34:55;;;;;;;9.77;8.25;;;;;;;23.27;82.58;102521.34;5039527;28;20045;-89
2023/09/04 10:37:23;;;;;;;11.88;10.25;;;;;;;23.24;83.04;102521.63;5040693;28;20029;-94
2023/09/04 10:39:51;;;;;;;14.02;10.75;;;;;;;23.07;80.17;102514.13;5046569;28;20034;-93
2023/09/04 10:42:17;;;;;;;13.27;9.90;;;;;;;23.21;81.58;102521.91;5047921;28;20180;-93
2023/09/04 10:44:47;;;;;;;9.20;8.30;;;;;;;23.72;80.27;102518.16;5027389;28;20090;-93
2023/09/04 10:47:14;;;;;;;11.13;8.90;;;;;;;23.54;78.41;102517.06;5027489;28;20113;-94
2023/09/04 10:49:44;;;;;;;10.68;8.75;;;;;;;23.73;82.02;102517.13;5043266;28;20192;-95
2023/09/04 10:52:11;;;;;;;8.98;7.28;;;;;;;23.46;77.23;102516.94;5048959;28;20037;-93
2023/09/04 10:54:37;;;;;;;7.78;6.32;;;;;;;23.58;76.04;102512.22;5041642;28;20037;-93
2023/09/04 10:57:07;;;;;;;8.45;7.40;;;;;;;23.69;76.44;102514.84;5052293;28;20029;-94
2023/09/04 10:59:54;;;;;;;10.30;8.02;;;;;;;23.65;76.91;102510.69;5035533;28;20038;-94
2023/09/04 11:02:32;;;;;;;12.85;9.23;;;;;;;23.59;78.23;102503.03;5052096;28;20030;-93
2023/09/04 11:05:00;;;;;;;18.33;12.27;;;;;;;23.41;78.40;102511.06;5033085;28;20025;-95
2023/09/04 11:07:28;;;;;;;12.70;10.45;;;;;;;23.76;79.63;102502.38;5048156;28;20085;-90